Time;durP1;ratioP1;P1;durP2;ratioP2;P2;SDS_P1;SDS_P2;PMS_P1;PMS_P2;Temp;Humidity;BMP_temperature;BMP_pressure;BME280_temperature;BME280_humidity;BME280_pressure;Samples;Min_cycle;Max_cycle;Signal;HPM_P1;HPM_P2
2023/06/22 00:01:54;;;;;;;5.60;4.95;;;24.10;97.00;;;;;;5060710;28;20839;-26
2023/06/22 00:04:22;;;;;;;5.07;4.55;;;24.00;96.90;;;;;;5045700;28;20203;-26
2023/06/22 00:06:49;;;;;;;6.32;5.22;;;24.00;96.80;;;;;;5043606;28;20230;-26
2023/06/22 00:09:19;;;;;;;7.07;5.10;;;24.00;96.80;;;;;;5060293;28;20201;-26
2023/06/22 00:11:46;;;;;;;5.53;4.90;;;24.00;96.90;;;;;;5077118;28;20236;-26
2023/06/22 00:14:14;;;;;;;6.95;5.25;;;24.00;96.90;;;;;;5043792;28;20565;-26
2023/06/22 00:16:43;;;;;;;5.93;4.60;;;24.00;96.90;;;;;;5044977;28;20200;-26
2023/06/22 00:19:11;;;;;;;6.80;4.57;;;24.00;96.90;;;;;;5045094;28;20249;-26
2023/06/22 00:21:46;;;;;;;6.13;5.30;;;23.90;96.80;;;;;;5059727;28;20284;-27
2023/06/22 00:24:16;;;;;;;6.53;5.25;;;23.90;96.80;;;;;;5027034;28;20528;-26
2023/06/22 00:26:51;;;;;;;5.68;5.05;;;23.90;96.80;;;;;;5045401;28;20205;-26
2023/06/22 00:29:23;;;;;;;5.85;4.55;;;23.80;96.80;;;;;;5059743;28;20283;-26
2023/06/22 00:31:52;;;;;;;7.63;5.00;;;23.80;96.70;;;;;;5059719;28;20823;-26
2023/06/22 00:34:21;;;;;;;6.50;5.13;;;23.80;96.80;;;;;;5059873;28;20200;-26
2023/06/22 00:36:48;;;;;;;5.93;5.10;;;23.70;96.80;;;;;;5059844;28;20475;-26
2023/06/22 00:39:16;;;;;;;6.47;5.05;;;23.70;96.80;;;;;;5043246;28;20572;-26
2023/06/22 00:41:43;;;;;;;5.90;5.05;;;23.70;96.80;;;;;;5043135;28;20197;-26
2023/06/22 00:44:10;;;;;;;6.20;5.38;;;23.70;96.80;;;;;;5042764;28;20254;-26
2023/06/22 00:46:38;;;;;;;5.32;4.82;;;23.70;96.80;;;;;;5044455;28;20211;-27
2023/06/22 00:49:07;;;;;;;5.57;4.93;;;23.70;96.80;;;;;;5044518;28;20208;-26
2023/06/22 00:51:37;;;;;;;6.88;5.00;;;23.70;96.80;;;;;;5059883;28;20228;-26
2023/06/22 00:54:05;;;;;;;6.53;5.57;;;23.70;96.90;;;;;;5044714;28;20286;-26
2023/06/22 00:56:33;;;;;;;6.45;5.32;;;23.70;96.90;;;;;;5044393;28;20210;-26
2023/06/22 00:59:03;;;;;;;8.25;5.85;;;23.70;97.00;;;;;;5042841;28;20745;-26
2023/06/22 01:01:34;;;;;;;5.85;5.30;;;23.70;97.00;;;;;;5059124;28;20197;-26
2023/06/22 01:04:06;;;;;;;6.35;5.25;;;23.60;97.10;;;;;;5044689;28;20216;-26
2023/06/22 01:06:45;;;;;;;7.68;5.82;;;23.70;97.20;;;;;;5059171;28;20614;-26
2023/06/22 01:09:22;;;;;;;5.60;4.97;;;23.60;97.30;;;;;;5045157;28;20208;-27
2023/06/22 01:11:57;;;;;;;6.68;5.60;;;23.60;97.10;;;;;;5044115;28;20319;-26
2023/06/22 01:14:32;;;;;;;5.90;5.30;;;23.60;97.20;;;;;;5044151;28;20242;-26
2023/06/22 01:17:01;;;;;;;6.70;5.18;;;23.60;97.20;;;;;;5044116;28;20200;-26
2023/06/22 01:19:41;;;;;;;6.68;5.35;;;23.60;97.00;;;;;;5044511;28;20493;-26
2023/06/22 01:22:16;;;;;;;6.78;5.78;;;23.60;97.20;;;;;;5044127;28;20236;-26
2023/06/22 01:25:14;;;;;;;5.68;5.13;;;23.60;97.00;;;;;;5058666;28;20203;-26
2023/06/22 01:28:00;;;;;;;5.45;4.90;;;23.50;97.30;;;;;;5059231;28;20204;-26
2023/06/22 01:30:30;;;;;;;7.28;5.85;;;23.50;97.20;;;;;;5058912;28;20566;-26
2023/06/22 01:32:59;;;;;;;5.78;5.18;;;23.50;97.10;;;;;;5058629;28;20970;-26
2023/06/22 01:35:27;;;;;;;5.85;4.97;;;23.50;97.00;;;;;;5042602;28;20648;-36
2023/06/22 01:37:55;;;;;;;6.93;5.60;;;23.40;97.10;;;;;;5044167;28;20216;-36
2023/06/22 01:40:24;;;;;;;5.60;5.10;;;23.40;97.10;;;;;;5074932;28;20211;-36
2023/06/22 01:42:53;;;;;;;6.28;5.43;;;23.40;97.20;;;;;;5043994;28;20196;-36
2023/06/22 01:45:26;;;;;;;5.68;4.85;;;23.40;97.20;;;;;;5042400;28;20261;-36
2023/06/22 01:47:54;;;;;;;6.85;5.03;;;23.40;97.30;;;;;;5043497;28;20211;-36
2023/06/22 01:50:26;;;;;;;5.82;5.15;;;23.40;97.30;;;;;;5058071;28;20571;-36
2023/06/22 01:52:57;;;;;;;7.28;5.18;;;23.40;97.20;;;;;;5074846;28;20200;-36
2023/06/22 01:55:26;;;;;;;7.47;5.32;;;23.30;97.20;;;;;;5042261;28;20282;-36
2023/06/22 01:57:53;;;;;;;6.22;5.63;;;23.30;97.20;;;;;;5042233;28;20288;-36
2023/06/22 02:00:28;;;;;;;7.93;5.30;;;23.30;97.20;;;;;;5043408;28;20204;-36
2023/06/22 02:03:07;;;;;;;6.03;5.15;;;23.30;97.20;;;;;;5043541;28;20593;-36
2023/06/22 02:05:43;;;;;;;7.57;5.32;;;23.20;97.30;;;;;;5058199;28;20277;-36
2023/06/22 02:08:16;;;;;;;7.25;5.55;;;23.20;97.20;;;;;;5075039;28;20258;-36
2023/06/22 02:10:45;;;;;;;5.65;5.15;;;23.20;97.30;;;;;;5043632;28;20676;-36
2023/06/22 02:13:14;;;;;;;5.93;5.30;;;23.20;97.20;;;;;;5043467;28;20200;-36
2023/06/22 02:15:42;;;;;;;6.18;5.57;;;23.20;97.30;;;;;;5042962;28;20204;-36
2023/06/22 02:18:11;;;;;;;5.75;5.18;;;23.10;97.30;;;;;;5043115;28;20704;-36
2023/06/22 02:20:39;;;;;;;6.18;5.57;;;23.10;97.30;;;;;;5043237;28;20265;-36
2023/06/22 02:23:09;;;;;;;8.23;6.03;;;23.00;97.20;;;;;;5043164;28;20319;-36
2023/06/22 02:25:39;;;;;;;6.15;5.40;;;23.00;97.20;;;;;;5057968;28;20208;-36
2023/06/22 02:28:06;;;;;;;6.15;5.55;;;22.90;97.10;;;;;;5043280;28;20204;-36
2023/06/22 02:30:38;;;;;;;6.10;5.50;;;22.90;97.10;;;;;;5041219;28;20207;-36
2023/06/22 02:33:10;;;;;;;6.80;6.05;;;22.90;97.20;;;;;;5043493;28;20199;-37
2023/06/22 02:35:48;;;;;;;6.13;5.50;;;22.90;97.20;;;;;;5043130;28;20203;-37
2023/06/22 02:38:21;;;;;;;6.00;5.32;;;22.90;97.10;;;;;;5043159;28;20196;-36
2023/06/22 02:40:56;;;;;;;6.72;6.07;;;22.80;97.10;;;;;;5043020;28;20212;-36
2023/06/22 02:43:24;;;;;;;6.40;5.80;;;22.80;97.20;;;;;;5042773;28;20196;-36
2023/06/22 02:45:55;;;;;;;6.85;6.15;;;22.80;97.30;;;;;;5057489;28;20349;-36
2023/06/22 02:48:26;;;;;;;6.68;5.97;;;22.80;97.30;;;;;;5057788;28;20201;-36
2023/06/22 02:50:56;;;;;;;8.93;5.90;;;22.70;97.20;;;;;;5042026;28;20263;-36
2023/06/22 02:53:25;;;;;;;7.38;5.40;;;22.70;97.20;;;;;;5041533;28;20250;-37
2023/06/22 02:55:58;;;;;;;6.85;6.10;;;22.70;97.30;;;;;;5041004;28;20204;-37
2023/06/22 02:58:25;;;;;;;9.13;6.45;;;22.70;97.30;;;;;;5042950;28;20200;-36
2023/06/22 03:01:04;;;;;;;7.72;6.05;;;22.70;97.30;;;;;;5057134;28;20318;-37
2023/06/22 03:03:38;;;;;;;7.50;6.22;;;22.70;97.30;;;;;;5042795;28;20196;-36
2023/06/22 03:06:06;;;;;;;9.10;6.97;;;22.70;97.40;;;;;;5042664;28;20208;-36
2023/06/22 03:08:34;;;;;;;7.03;6.28;;;22.60;97.40;;;;;;5057123;28;20228;-36
2023/06/22 03:11:03;;;;;;;6.38;5.70;;;22.60;97.30;;;;;;5024257;28;20192;-37
2023/06/22 03:13:31;;;;;;;7.00;6.30;;;22.60;97.50;;;;;;5057671;28;20629;-36
2023/06/22 03:15:58;;;;;;;6.80;6.10;;;22.60;97.60;;;;;;5040883;28;20248;-36
2023/06/22 03:18:27;;;;;;;7.97;6.60;;;22.50;97.40;;;;;;5057233;28;20207;-37
2023/06/22 03:20:57;;;;;;;6.78;6.07;;;22.50;97.40;;;;;;5057771;28;20660;-36
2023/06/22 03:23:24;;;;;;;7.28;6.13;;;22.40;97.40;;;;;;5040975;28;20235;-36
2023/06/22 03:25:58;;;;;;;7.13;6.32;;;22.40;97.30;;;;;;5042436;28;20197;-37
2023/06/22 03:28:26;;;;;;;7.28;6.53;;;22.40;97.40;;;;;;5041136;28;20196;-37
2023/06/22 03:30:58;;;;;;;7.53;6.72;;;22.30;97.40;;;;;;5041773;28;20200;-36
2023/06/22 03:33:28;;;;;;;7.40;6.15;;;22.30;97.30;;;;;;5042265;28;20228;-37
2023/06/22 03:35:58;;;;;;;8.23;6.43;;;22.30;97.30;;;;;;5040516;28;20200;-36
2023/06/22 03:38:29;;;;;;;8.02;6.65;;;22.30;97.40;;;;;;5057532;28;20717;-37
2023/06/22 03:40:57;;;;;;;8.30;6.80;;;22.30;97.40;;;;;;5042210;28;20736;-36
2023/06/22 03:43:29;;;;;;;7.30;6.60;;;22.30;97.60;;;;;;5057018;28;20201;-37
2023/06/22 03:45:59;;;;;;;6.93;6.20;;;22.30;97.50;;;;;;5073792;28;20192;-36
2023/06/22 03:48:26;;;;;;;7.20;6.32;;;22.30;97.50;;;;;;5056803;28;20568;-36
2023/06/22 03:50:53;;;;;;;8.77;7.05;;;22.30;97.50;;;;;;5042160;28;20550;-37
2023/06/22 03:53:23;;;;;;;7.03;6.28;;;22.30;97.50;;;;;;5057182;28;20301;-37
2023/06/22 03:55:52;;;;;;;7.22;6.53;;;22.30;97.60;;;;;;5056818;28;20212;-36
2023/06/22 03:58:21;;;;;;;8.85;6.88;;;22.30;97.60;;;;;;5056618;28;20603;-36
2023/06/22 04:00:52;;;;;;;9.07;6.50;;;22.30;97.60;;;;;;5041967;28;20200;-35
2023/06/22 04:03:20;;;;;;;8.88;7.13;;;22.30;97.60;;;;;;5044479;28;20238;-36
2023/06/22 04:05:55;;;;;;;8.32;7.50;;;22.30;97.70;;;;;;5045772;28;20215;-36
2023/06/22 04:08:25;;;;;;;7.38;6.65;;;22.30;97.80;;;;;;5045920;28;20219;-36
2023/06/22 04:10:52;;;;;;;7.88;6.40;;;22.30;97.80;;;;;;5045479;28;20215;-36
2023/06/22 04:13:26;;;;;;;7.82;6.85;;;22.40;97.80;;;;;;5060037;28;20224;-36
2023/06/22 04:15:54;;;;;;;8.15;6.80;;;22.40;97.80;;;;;;5045198;28;20709;-36
2023/06/22 04:18:21;;;;;;;9.05;6.65;;;22.40;97.80;;;;;;5045173;28;20515;-37
2023/06/22 04:20:48;;;;;;;7.43;6.72;;;22.40;97.80;;;;;;5044840;28;20255;-46
2023/06/22 04:23:17;;;;;;;6.75;6.13;;;22.40;97.90;;;;;;5044992;28;20251;-36
2023/06/22 04:25:44;;;;;;;8.48;6.57;;;22.40;97.90;;;;;;5060463;28;20192;-36
2023/06/22 04:28:12;;;;;;;8.20;6.97;;;22.40;98.00;;;;;;5045062;28;20239;-36
2023/06/22 04:30:46;;;;;;;9.23;7.10;;;22.40;98.10;;;;;;5045203;28;20869;-36
2023/06/22 04:33:17;;;;;;;7.88;7.05;;;22.50;98.10;;;;;;5044822;28;20226;-36
2023/06/22 04:35:50;;;;;;;11.18;7.95;;;22.50;98.10;;;;;;5044481;28;20200;-40
2023/06/22 04:38:21;;;;;;;8.43;6.60;;;22.50;98.20;;;;;;5045036;28;20196;-36
2023/06/22 04:40:49;;;;;;;8.18;6.57;;;22.50;98.10;;;;;;5044773;28;20981;-36
2023/06/22 04:43:16;;;;;;;9.07;6.90;;;22.50;98.20;;;;;;5045008;28;20220;-36
2023/06/22 04:45:46;;;;;;;8.07;7.07;;;22.50;98.20;;;;;;5059489;28;20588;-36
2023/06/22 04:48:15;;;;;;;8.75;6.97;;;22.50;98.30;;;;;;5043243;28;20238;-37
2023/06/22 04:50:45;;;;;;;9.02;7.22;;;22.50;98.20;;;;;;5059218;28;20204;-36
2023/06/22 04:53:12;;;;;;;8.32;7.22;;;22.50;98.30;;;;;;5044490;28;20723;-26
2023/06/22 04:55:41;;;;;;;8.20;6.68;;;22.50;98.30;;;;;;5059166;28;20266;-26
2023/06/22 04:58:12;;;;;;;8.15;7.22;;;22.50;98.30;;;;;;5044301;28;20777;-26
2023/06/22 05:00:44;;;;;;;10.35;7.30;;;22.60;98.40;;;;;;5044038;28;20714;-26
2023/06/22 05:03:14;;;;;;;9.73;7.80;;;22.60;98.40;;;;;;5044369;28;20261;-26
2023/06/22 05:05:49;;;;;;;8.55;7.40;;;22.60;98.50;;;;;;5058536;28;20200;-26
2023/06/22 05:08:18;;;;;;;8.60;7.70;;;22.60;98.50;;;;;;5044651;28;20267;-26
2023/06/22 05:10:48;;;;;;;13.07;8.25;;;22.60;98.50;;;;;;5044430;28;20207;-26
2023/06/22 05:13:34;;;;;;;8.25;7.45;;;22.70;98.60;;;;;;5044037;28;20232;-26
2023/06/22 05:16:01;;;;;;;8.18;6.82;;;22.70;98.60;;;;;;5043953;28;20293;-26
2023/06/22 05:18:30;;;;;;;9.95;7.60;;;22.70;98.60;;;;;;5043973;28;20205;-26
2023/06/22 05:20:59;;;;;;;9.50;7.22;;;22.70;98.60;;;;;;5043783;28;20273;-26
2023/06/22 05:23:27;;;;;;;8.70;7.78;;;22.70;98.60;;;;;;5058760;28;20711;-26
2023/06/22 05:25:57;;;;;;;8.00;7.03;;;22.70;98.70;;;;;;5058875;28;20669;-26
2023/06/22 05:28:27;;;;;;;8.43;7.57;;;22.80;98.80;;;;;;5058805;28;20204;-26
2023/06/22 05:30:57;;;;;;;8.73;7.28;;;22.80;98.80;;;;;;5042061;28;20216;-26
2023/06/22 05:33:24;;;;;;;8.73;7.70;;;22.80;98.80;;;;;;5043694;28;20559;-26
2023/06/22 05:35:54;;;;;;;9.40;7.95;;;22.90;98.80;;;;;;5043513;28;20202;-26
2023/06/22 05:38:23;;;;;;;9.98;7.68;;;22.90;98.80;;;;;;5044066;28;20680;-26
2023/06/22 05:40:51;;;;;;;10.02;7.90;;;22.90;98.80;;;;;;5042572;28;20203;-26
2023/06/22 05:43:20;;;;;;;8.63;7.38;;;22.90;98.80;;;;;;5043619;28;20204;-26
2023/06/22 05:45:47;;;;;;;9.32;7.00;;;22.90;98.80;;;;;;5058499;28;20208;-29
2023/06/22 05:48:17;;;;;;;11.55;8.23;;;22.90;98.80;;;;;;5041912;28;20587;-26
2023/06/22 05:50:44;;;;;;;10.02;7.85;;;22.90;98.90;;;;;;5058411;28;20211;-26
2023/06/22 05:53:12;;;;;;;9.95;7.35;;;22.90;98.90;;;;;;5043644;28;20232;-26
2023/06/22 05:55:45;;;;;;;9.18;7.60;;;22.90;98.90;;;;;;5043318;28;20204;-27
2023/06/22 05:58:13;;;;;;;10.90;8.20;;;22.90;98.90;;;;;;5058482;28;20593;-26
2023/06/22 06:00:41;;;;;;;10.63;9.30;;;22.90;98.90;;;;;;5057357;28;20189;-26
2023/06/22 06:03:09;;;;;;;10.35;8.90;;;22.90;98.90;;;;;;5043961;28;20216;-26
2023/06/22 06:05:45;;;;;;;10.15;8.80;;;22.90;98.80;;;;;;5058644;28;20216;-26
2023/06/22 06:08:15;;;;;;;10.57;9.02;;;22.90;98.80;;;;;;5044092;28;20301;-26
2023/06/22 06:10:42;;;;;;;9.80;8.77;;;22.90;98.70;;;;;;5058949;28;20258;-26
2023/06/22 06:13:12;;;;;;;12.07;9.13;;;22.80;98.70;;;;;;5058701;28;20243;-25
2023/06/22 06:15:51;;;;;;;9.77;8.40;;;22.80;98.70;;;;;;5042911;28;20659;-26
2023/06/22 06:18:18;;;;;;;11.95;9.80;;;22.80;98.80;;;;;;5044303;28;20199;-25
2023/06/22 06:20:48;;;;;;;10.82;9.73;;;22.80;98.90;;;;;;5075533;28;20608;-25
2023/06/22 06:23:15;;;;;;;13.15;9.70;;;22.80;98.90;;;;;;5043625;28;20955;-26
2023/06/22 06:25:47;;;;;;;11.27;9.60;;;22.80;98.80;;;;;;5043645;28;20776;-26
2023/06/22 06:28:16;;;;;;;14.38;9.85;;;22.80;98.90;;;;;;5058962;28;20285;-26
2023/06/22 06:30:49;;;;;;;10.55;9.20;;;22.80;98.90;;;;;;5043588;28;20299;-27
2023/06/22 06:33:20;;;;;;;11.50;10.02;;;22.80;99.00;;;;;;5043200;28;20648;-26
2023/06/22 06:35:53;;;;;;;11.50;9.38;;;22.80;99.00;;;;;;5057821;28;20207;-36
2023/06/22 06:38:28;;;;;;;11.60;10.40;;;22.80;99.20;;;;;;5057938;28;20192;-36
2023/06/22 06:40:58;;;;;;;13.75;10.60;;;22.80;99.20;;;;;;5043954;28;20269;-36
2023/06/22 06:43:27;;;;;;;12.25;10.68;;;22.90;99.20;;;;;;5074298;28;20654;-36
2023/06/22 06:45:57;;;;;;;13.05;10.82;;;22.90;99.30;;;;;;5074413;28;20208;-36
2023/06/22 06:48:29;;;;;;;13.98;10.48;;;23.00;99.30;;;;;;5058423;28;20207;-36
2023/06/22 06:50:59;;;;;;;12.85;10.75;;;23.00;99.30;;;;;;5073071;28;20196;-36
2023/06/22 06:53:28;;;;;;;12.10;10.60;;;23.10;99.40;;;;;;5041451;28;20729;-36
2023/06/22 06:55:58;;;;;;;13.30;11.07;;;23.10;99.40;;;;;;5073175;28;20726;-36
2023/06/22 06:58:25;;;;;;;13.55;10.82;;;23.20;99.50;;;;;;5057083;28;20208;-36
2023/06/22 07:00:52;;;;;;;13.82;10.23;;;23.20;99.50;;;;;;5056983;28;20277;-36
2023/06/22 07:03:22;;;;;;;11.45;9.65;;;23.20;99.50;;;;;;5042447;28;20554;-36
2023/06/22 07:05:54;;;;;;;15.10;10.38;;;23.30;99.50;;;;;;5042448;28;21073;-36
2023/06/22 07:08:21;;;;;;;10.68;9.43;;;23.30;99.60;;;;;;5041869;28;20219;-36
2023/06/22 07:10:48;;;;;;;10.32;9.23;;;23.30;99.60;;;;;;5057054;28;20200;-36
2023/06/22 07:13:18;;;;;;;11.82;9.88;;;23.30;99.60;;;;;;5042493;28;20218;-36
2023/06/22 07:15:48;;;;;;;10.95;9.55;;;23.30;99.60;;;;;;5073660;28;20629;-36
2023/06/22 07:18:17;;;;;;;10.50;9.07;;;23.40;99.60;;;;;;5042229;28;20250;-36
2023/06/22 07:20:44;;;;;;;15.23;8.90;;;23.40;99.60;;;;;;5056897;28;20242;-36
2023/06/22 07:23:14;;;;;;;12.13;9.10;;;23.50;99.60;;;;;;5040632;28;20240;-36
2023/06/22 07:25:44;;;;;;;13.10;9.02;;;23.50;99.60;;;;;;5023887;28;20204;-35
2023/06/22 07:28:13;;;;;;;8.48;7.60;;;23.50;99.60;;;;;;5057215;28;20208;-35
2023/06/22 07:30:40;;;;;;;10.30;8.95;;;23.50;99.60;;;;;;5041228;28;20799;-35
2023/06/22 07:33:10;;;;;;;9.98;8.18;;;23.50;99.60;;;;;;5056681;28;20231;-35
2023/06/22 07:35:37;;;;;;;11.70;8.23;;;23.50;99.60;;;;;;5042125;28;20208;-35
2023/06/22 07:38:05;;;;;;;15.15;9.07;;;23.60;99.70;;;;;;5026580;28;20200;-35
2023/06/22 07:40:33;;;;;;;10.82;9.02;;;23.60;99.70;;;;;;5045673;28;20771;-35
2023/06/22 07:43:01;;;;;;;11.20;8.90;;;23.60;99.60;;;;;;5060502;28;20252;-35
2023/06/22 07:45:34;;;;;;;10.57;9.13;;;23.70;99.60;;;;;;5044320;28;20196;-34
2023/06/22 07:48:02;;;;;;;9.57;8.52;;;23.60;99.90;;;;;;5046217;28;20216;-34
2023/06/22 07:50:32;;;;;;;10.88;8.80;;;23.60;99.70;;;;;;5044106;28;20760;-34
2023/06/22 07:53:02;;;;;;;11.10;9.45;;;23.70;99.70;;;;;;5043945;28;20239;-35
2023/06/22 07:55:32;;;;;;;10.55;8.55;;;23.70;99.70;;;;;;5059902;28;20196;-35
2023/06/22 07:58:00;;;;;;;9.38;8.38;;;23.70;99.70;;;;;;5045771;28;20200;-34
2023/06/22 08:00:36;;;;;;;8.35;7.55;;;23.70;99.70;;;;;;5060244;28;20264;-35
2023/06/22 08:03:04;;;;;;;11.10;8.48;;;23.70;99.60;;;;;;5060193;28;20302;-35
2023/06/22 08:05:34;;;;;;;9.18;7.43;;;23.70;99.60;;;;;;5043928;28;20224;-34
2023/06/22 08:08:04;;;;;;;9.07;7.13;;;23.70;99.60;;;;;;5045276;28;20200;-35
2023/06/22 08:10:31;;;;;;;9.95;7.47;;;23.70;99.60;;;;;;5027204;28;20634;-35
2023/06/22 08:13:02;;;;;;;9.48;7.55;;;23.80;99.60;;;;;;5045395;28;20571;-35
2023/06/22 08:15:29;;;;;;;8.65;7.10;;;23.80;99.60;;;;;;5043430;28;20263;-26
2023/06/22 08:18:00;;;;;;;8.40;7.50;;;23.80;99.60;;;;;;5045848;28;20211;-26
2023/06/22 08:20:32;;;;;;;9.50;6.93;;;23.80;99.60;;;;;;5045440;28;20661;-25
2023/06/22 08:23:06;;;;;;;10.98;7.00;;;23.80;99.60;;;;;;5044896;28;20586;-26
2023/06/22 08:25:38;;;;;;;8.70;6.90;;;23.80;99.60;;;;;;5045009;28;20204;-26
2023/06/22 08:28:05;;;;;;;10.55;6.70;;;23.80;99.50;;;;;;5059551;28;20286;-26
2023/06/22 08:30:37;;;;;;;6.82;5.82;;;23.80;99.50;;;;;;5059682;28;20212;-26
2023/06/22 08:33:05;;;;;;;7.20;6.05;;;23.80;99.60;;;;;;5044753;28;20301;-26
2023/06/22 08:35:32;;;;;;;7.40;5.50;;;23.80;99.80;;;;;;5043369;28;20271;-26
2023/06/22 08:38:01;;;;;;;8.50;5.97;;;23.80;99.50;;;;;;5059672;28;20686;-26
2023/06/22 08:40:29;;;;;;;7.97;6.25;;;23.80;99.40;;;;;;5044666;28;20200;-26
2023/06/22 08:42:56;;;;;;;6.68;5.95;;;23.80;99.40;;;;;;5044896;28;20208;-26
2023/06/22 08:45:24;;;;;;;7.95;6.22;;;23.80;99.40;;;;;;5059695;28;20626;-26
2023/06/22 08:47:52;;;;;;;6.47;5.15;;;23.80;99.30;;;;;;5044686;28;20751;-26
2023/06/22 08:50:20;;;;;;;8.77;5.90;;;23.70;99.30;;;;;;5043875;28;20915;-26
2023/06/22 08:52:47;;;;;;;6.53;5.32;;;23.80;99.30;;;;;;5044378;28;20231;-26
2023/06/22 08:55:14;;;;;;;7.00;5.57;;;23.80;99.40;;;;;;5059290;28;20608;-26
2023/06/22 08:57:46;;;;;;;6.97;5.55;;;23.80;99.40;;;;;;5044937;28;20204;-26
2023/06/22 09:00:18;;;;;;;6.97;4.82;;;23.80;99.40;;;;;;5044196;28;20242;-26
2023/06/22 09:02:51;;;;;;;7.28;5.20;;;23.80;99.40;;;;;;5044822;28;20777;-26
2023/06/22 09:05:23;;;;;;;8.15;5.10;;;23.80;99.40;;;;;;5042776;28;20295;-26
2023/06/22 09:07:54;;;;;;;7.93;5.40;;;23.80;99.40;;;;;;5059207;28;20208;-27
2023/06/22 09:10:21;;;;;;;7.97;4.78;;;23.80;99.40;;;;;;5044246;28;20203;-26
2023/06/22 09:12:51;;;;;;;5.05;4.57;;;23.80;99.40;;;;;;5058913;28;20301;-26
2023/06/22 09:15:19;;;;;;;8.05;5.18;;;23.90;99.50;;;;;;5075510;28;20196;-26
2023/06/22 09:17:46;;;;;;;6.10;4.47;;;23.80;99.40;;;;;;5059085;28;20291;-26
2023/06/22 09:20:16;;;;;;;4.90;4.43;;;23.90;99.50;;;;;;5044053;28;20201;-26
2023/06/22 09:22:49;;;;;;;6.00;4.97;;;23.90;99.50;;;;;;5044090;28;20236;-26
2023/06/22 09:25:20;;;;;;;6.35;5.43;;;23.90;99.50;;;;;;5058852;28;20215;-26
2023/06/22 09:27:48;;;;;;;6.57;4.47;;;23.90;99.40;;;;;;5042297;28;20294;-26
2023/06/22 09:30:17;;;;;;;6.25;4.93;;;23.90;99.50;;;;;;5026027;28;20682;-26
2023/06/22 09:32:45;;;;;;;7.25;5.10;;;23.90;99.50;;;;;;5042249;28;20242;-27
2023/06/22 09:35:13;;;;;;;7.03;5.07;;;23.90;99.50;;;;;;5025942;28;20196;-26
2023/06/22 09:37:40;;;;;;;12.60;5.38;;;23.90;99.60;;;;;;5042856;28;20288;-26
2023/06/22 09:40:12;;;;;;;5.70;4.95;;;23.90;99.60;;;;;;5043819;28;20200;-26
2023/06/22 09:42:42;;;;;;;6.30;5.18;;;23.90;99.60;;;;;;5058722;28;20208;-35
2023/06/22 09:45:10;;;;;;;5.78;4.97;;;23.90;99.60;;;;;;5057882;28;20234;-35
2023/06/22 09:47:39;;;;;;;8.25;6.85;;;23.90;99.70;;;;;;5043297;28;20223;-35
2023/06/22 09:50:07;;;;;;;10.15;7.03;;;23.90;99.70;;;;;;5043639;28;20608;-35
2023/06/22 09:52:34;;;;;;;8.27;6.78;;;23.90;99.90;;;;;;5043136;28;20236;-35
2023/06/22 09:55:17;;;;;;;7.70;6.85;;;23.80;99.90;;;;;;5043388;28;20779;-35
2023/06/22 09:57:47;;;;;;;9.00;8.10;;;23.80;99.90;;;;;;5043850;28;20294;-35
2023/06/22 10:00:16;;;;;;;10.90;7.57;;;23.80;99.90;;;;;;5043544;28;20213;-33
2023/06/22 10:02:48;;;;;;;8.98;7.80;;;23.80;99.90;;;;;;5043139;28;20510;-33
2023/06/22 10:05:18;;;;;;;9.50;7.82;;;23.80;99.90;;;;;;5043713;28;20188;-33
2023/06/22 10:07:48;;;;;;;15.25;9.55;;;23.80;99.90;;;;;;5058008;28;20200;-32
2023/06/22 10:10:18;;;;;;;16.08;10.05;;;23.80;99.90;;;;;;5042935;28;20250;-32
2023/06/22 10:12:56;;;;;;;12.43;9.98;;;23.70;99.90;;;;;;5057647;28;20287;-32
2023/06/22 10:15:24;;;;;;;13.50;11.45;;;23.70;99.90;;;;;;5043473;28;20206;-32
2023/06/22 10:17:56;;;;;;;15.00;11.30;;;23.70;99.90;;;;;;5058813;28;20690;-32
2023/06/22 10:20:26;;;;;;;19.40;13.88;;;23.60;99.90;;;;;;5075426;28;20286;-32
2023/06/22 10:22:53;;;;;;;18.55;14.27;;;23.50;99.90;;;;;;5057909;28;20236;-32
2023/06/22 10:25:22;;;;;;;14.52;12.57;;;23.50;99.90;;;;;;5043983;28;20730;-26
2023/06/22 10:27:51;;;;;;;15.85;13.05;;;23.40;99.90;;;;;;5043900;28;20302;-25
2023/06/22 10:30:21;;;;;;;14.05;12.73;;;23.30;99.90;;;;;;5058137;28;20200;-25
2023/06/22 10:32:48;;;;;;;15.57;12.40;;;23.20;99.90;;;;;;5044089;28;20758;-25
2023/06/22 10:35:18;;;;;;;14.35;12.68;;;23.00;99.90;;;;;;5042098;28;20197;-25
2023/06/22 10:37:49;;;;;;;13.82;12.38;;;23.00;99.90;;;;;;5043966;28;20547;-26
2023/06/22 10:40:19;;;;;;;16.15;13.48;;;22.90;99.90;;;;;;5042466;28;20192;-26
2023/06/22 10:42:46;;;;;;;13.95;12.48;;;22.70;99.90;;;;;;5043442;28;20210;-26
2023/06/22 10:45:18;;;;;;;13.05;11.02;;;22.70;99.90;;;;;;5059208;28;20205;-26
2023/06/22 10:47:45;;;;;;;13.30;11.90;;;22.60;99.90;;;;;;5058843;28;20320;-26
2023/06/22 10:50:15;;;;;;;18.85;11.82;;;22.50;99.90;;;;;;5058125;28;20215;-26
2023/06/22 10:52:42;;;;;;;15.50;12.43;;;22.30;99.90;;;;;;5043984;28;20546;-26
2023/06/22 10:55:12;;;;;;;14.20;12.20;;;22.20;99.90;;;;;;5058467;28;20342;-26
2023/06/22 10:57:43;;;;;;;15.82;12.95;;;22.10;99.90;;;;;;5059058;28;20200;-28
2023/06/22 11:00:14;;;;;;;16.42;12.73;;;21.90;99.90;;;;;;5043536;28;20318;-26
2023/06/22 11:02:44;;;;;;;16.60;13.18;;;21.80;99.90;;;;;;5043646;28;20196;-26
2023/06/22 11:05:14;;;;;;;14.13;12.52;;;21.70;99.90;;;;;;5043739;28;20207;-26
2023/06/22 11:07:43;;;;;;;15.15;12.48;;;21.70;99.90;;;;;;5043720;28;20192;-26
2023/06/22 11:10:16;;;;;;;16.73;14.95;;;21.60;99.90;;;;;;5043759;28;20273;-26
2023/06/22 11:12:48;;;;;;;15.43;13.82;;;21.60;99.90;;;;;;5044324;28;20235;-26
2023/06/22 11:15:15;;;;;;;18.15;14.82;;;21.50;99.90;;;;;;5062193;28;20228;-26
2023/06/22 11:17:47;;;;;;;16.05;14.45;;;21.40;99.90;;;;;;5047554;28;20266;-26
2023/06/22 11:20:14;;;;;;;15.23;13.57;;;21.40;99.90;;;;;;5047408;28;20192;-27
2023/06/22 11:22:42;;;;;;;16.00;14.40;;;21.40;99.90;;;;;;5047189;28;20239;-26
2023/06/22 11:25:11;;;;;;;19.45;17.10;;;21.40;99.90;;;;;;5078961;28;20214;-26
2023/06/22 11:27:41;;;;;;;18.33;14.90;;;21.40;99.90;;;;;;5078190;28;20262;-26
2023/06/22 11:30:08;;;;;;;16.80;15.02;;;21.30;99.90;;;;;;5078736;28;20200;-26
2023/06/22 11:32:38;;;;;;;19.77;17.50;;;21.30;99.90;;;;;;5047167;28;20300;-26
2023/06/22 11:35:08;;;;;;;19.80;17.70;;;21.30;99.90;;;;;;5047293;28;20265;-26
2023/06/22 11:37:35;;;;;;;21.55;19.27;;;21.30;99.90;;;;;;5047201;28;20196;-26
2023/06/22 11:40:05;;;;;;;20.27;18.08;;;21.30;99.90;;;;;;5062050;28;20652;-26
2023/06/22 11:42:34;;;;;;;19.75;17.75;;;21.30;99.90;;;;;;5078131;28;20188;-26
2023/06/22 11:45:02;;;;;;;18.55;16.63;;;21.30;99.90;;;;;;5062042;28;20204;-26
2023/06/22 11:47:31;;;;;;;21.58;19.38;;;21.30;99.90;;;;;;5062067;28;20207;-26
2023/06/22 11:49:59;;;;;;;21.13;18.83;;;21.30;99.90;;;;;;5062049;28;20320;-26
2023/06/22 11:52:27;;;;;;;19.85;17.75;;;21.30;99.90;;;;;;5062101;28;20205;-26
2023/06/22 11:54:56;;;;;;;20.85;18.65;;;21.30;99.90;;;;;;5061428;28;20252;-26
2023/06/22 11:57:24;;;;;;;28.83;20.38;;;21.40;99.90;;;;;;5045424;28;20215;-26
2023/06/22 11:59:53;;;;;;;21.35;19.25;;;21.40;99.90;;;;;;5046681;28;20705;-26
2023/06/22 12:02:23;;;;;;;22.85;20.45;;;21.40;99.90;;;;;;5047420;28;20428;-26
2023/06/22 12:04:52;;;;;;;22.50;20.30;;;21.40;99.90;;;;;;5046047;28;20211;-26
2023/06/22 12:07:19;;;;;;;19.48;17.45;;;21.40;99.90;;;;;;5044903;28;20291;-26
2023/06/22 12:09:49;;;;;;;23.27;20.83;;;21.40;99.90;;;;;;5061759;28;20259;-26
2023/06/22 12:12:18;;;;;;;24.00;21.50;;;21.40;99.90;;;;;;5045826;28;20200;-26
2023/06/22 12:14:48;;;;;;;26.25;23.52;;;21.40;99.90;;;;;;5061114;28;20228;-26
2023/06/22 12:17:15;;;;;;;25.75;23.05;;;21.40;99.90;;;;;;5061585;28;20192;-25
2023/06/22 12:19:47;;;;;;;23.67;21.20;;;21.40;99.90;;;;;;5046978;28;20633;-26
2023/06/22 12:22:16;;;;;;;27.20;24.33;;;21.40;99.90;;;;;;5061301;28;20242;-26
2023/06/22 12:24:43;;;;;;;22.77;20.15;;;21.40;99.90;;;;;;5061166;28;20212;-27
2023/06/22 12:27:11;;;;;;;22.98;20.58;;;21.40;99.90;;;;;;5060729;28;20212;-26
2023/06/22 12:29:38;;;;;;;26.17;23.42;;;21.40;99.90;;;;;;5061302;28;20243;-26
2023/06/22 12:32:08;;;;;;;23.70;21.15;;;21.40;99.90;;;;;;5046424;28;20743;-27
2023/06/22 12:34:35;;;;;;;24.33;21.77;;;21.40;99.90;;;;;;5046506;28;20220;-26
2023/06/22 12:37:04;;;;;;;24.98;22.38;;;21.40;99.90;;;;;;5045923;28;20224;-30
2023/06/22 12:39:33;;;;;;;25.17;22.42;;;21.40;99.90;;;;;;5077366;28;20660;-26
2023/06/22 12:42:08;;;;;;;25.13;22.50;;;21.40;99.90;;;;;;5046624;28;20208;-26
2023/06/22 12:44:42;;;;;;;24.92;22.27;;;21.40;99.90;;;;;;5077202;28;20204;-26
2023/06/22 12:47:09;;;;;;;24.85;22.25;;;21.40;99.90;;;;;;5044658;28;20204;-26
2023/06/22 12:49:43;;;;;;;24.02;21.35;;;21.40;99.90;;;;;;5045740;28;20204;-26
2023/06/22 12:52:13;;;;;;;25.58;22.85;;;21.40;99.90;;;;;;5060798;28;20199;-25
2023/06/22 12:54:45;;;;;;;25.63;22.90;;;21.30;99.90;;;;;;5060839;28;20228;-25